sensor_id;sensor_type;location;lat;lon;timestamp;temperature;humidity
10566;DHT22;5331;48.148;16.326;2023-01-16T00:01:43;5.70;1.00
10566;DHT22;5331;48.148;16.326;2023-01-16T00:04:10;5.70;1.00
10566;DHT22;5331;48.148;16.326;2023-01-16T00:06:37;5.80;1.00
10566;DHT22;5331;48.148;16.326;2023-01-16T00:09:07;5.70;1.00
10566;DHT22;5331;48.148;16.326;2023-01-16T00:11:34;5.80;1.00
10566;DHT22;5331;48.148;16.326;2023-01-16T00:14:01;5.80;1.00
10566;DHT22;5331;48.148;16.326;2023-01-16T00:16:28;5.70;1.00
10566;DHT22;5331;48.148;16.326;2023-01-16T00:18:55;5.70;1.00
10566;DHT22;5331;48.148;16.326;2023-01-16T00:21:23;5.60;1.00
10566;DHT22;5331;48.148;16.326;2023-01-16T00:23:52;5.60;1.00
10566;DHT22;5331;48.148;16.326;2023-01-16T00:26:21;5.60;1.00
10566;DHT22;5331;48.148;16.326;2023-01-16T00:28:48;5.60;1.00
10566;DHT22;5331;48.148;16.326;2023-01-16T00:31:15;5.60;1.00
10566;DHT22;5331;48.148;16.326;2023-01-16T00:33:42;5.60;1.00
10566;DHT22;5331;48.148;16.326;2023-01-16T00:36:09;5.60;1.00
10566;DHT22;5331;48.148;16.326;2023-01-16T00:38:37;5.50;1.00
10566;DHT22;5331;48.148;16.326;2023-01-16T00:41:05;5.50;1.00
10566;DHT22;5331;48.148;16.326;2023-01-16T00:43:33;5.50;1.00
10566;DHT22;5331;48.148;16.326;2023-01-16T00:46:01;5.40;1.00
10566;DHT22;5331;48.148;16.326;2023-01-16T00:48:28;5.50;1.00
10566;DHT22;5331;48.148;16.326;2023-01-16T00:50:55;5.40;1.00
10566;DHT22;5331;48.148;16.326;2023-01-16T00:53:21;5.40;1.00
10566;DHT22;5331;48.148;16.326;2023-01-16T00:55:50;5.40;1.00
10566;DHT22;5331;48.148;16.326;2023-01-16T00:58:18;5.40;1.00
10566;DHT22;5331;48.148;16.326;2023-01-16T01:00:46;5.40;1.00
10566;DHT22;5331;48.148;16.326;2023-01-16T01:03:15;5.30;1.00
10566;DHT22;5331;48.148;16.326;2023-01-16T01:05:42;5.40;1.00
10566;DHT22;5331;48.148;16.326;2023-01-16T01:08:08;5.40;1.00
10566;DHT22;5331;48.148;16.326;2023-01-16T01:10:36;5.40;1.00
10566;DHT22;5331;48.148;16.326;2023-01-16T01:13:03;5.40;1.00
10566;DHT22;5331;48.148;16.326;2023-01-16T01:15:30;5.40;1.00
10566;DHT22;5331;48.148;16.326;2023-01-16T01:17:59;5.40;1.00
10566;DHT22;5331;48.148;16.326;2023-01-16T01:20:26;5.30;1.00
10566;DHT22;5331;48.148;16.326;2023-01-16T01:22:53;5.30;1.00
10566;DHT22;5331;48.148;16.326;2023-01-16T01:25:20;5.20;1.00
10566;DHT22;5331;48.148;16.326;2023-01-16T01:27:47;5.20;1.00
10566;DHT22;5331;48.148;16.326;2023-01-16T01:30:14;5.20;1.00
10566;DHT22;5331;48.148;16.326;2023-01-16T01:32:41;5.20;1.00
10566;DHT22;5331;48.148;16.326;2023-01-16T01:35:10;5.20;1.00
10566;DHT22;5331;48.148;16.326;2023-01-16T01:37:37;5.20;1.00
10566;DHT22;5331;48.148;16.326;2023-01-16T01:40:05;5.20;1.00
10566;DHT22;5331;48.148;16.326;2023-01-16T01:42:37;5.20;1.00
10566;DHT22;5331;48.148;16.326;2023-01-16T01:45:15;5.20;1.00
10566;DHT22;5331;48.148;16.326;2023-01-16T01:47:46;5.20;1.00
10566;DHT22;5331;48.148;16.326;2023-01-16T01:50:22;5.10;1.00
10566;DHT22;5331;48.148;16.326;2023-01-16T01:52:50;5.10;1.00
10566;DHT22;5331;48.148;16.326;2023-01-16T01:55:19;5.10;1.00
10566;DHT22;5331;48.148;16.326;2023-01-16T01:57:49;5.10;1.00
10566;DHT22;5331;48.148;16.326;2023-01-16T02:00:21;5.10;1.00
10566;DHT22;5331;48.148;16.326;2023-01-16T02:02:52;5.10;1.00
10566;DHT22;5331;48.148;16.326;2023-01-16T02:05:24;5.10;1.00
10566;DHT22;5331;48.148;16.326;2023-01-16T02:07:52;5.10;1.00
10566;DHT22;5331;48.148;16.326;2023-01-16T02:10:25;5.00;1.00
10566;DHT22;5331;48.148;16.326;2023-01-16T02:12:54;5.00;1.00
10566;DHT22;5331;48.148;16.326;2023-01-16T02:15:21;5.00;1.00
10566;DHT22;5331;48.148;16.326;2023-01-16T02:17:49;5.00;1.00
10566;DHT22;5331;48.148;16.326;2023-01-16T02:20:46;5.00;1.00
10566;DHT22;5331;48.148;16.326;2023-01-16T02:23:59;5.00;1.00
10566;DHT22;5331;48.148;16.326;2023-01-16T02:26:49;5.00;1.00
10566;DHT22;5331;48.148;16.326;2023-01-16T02:32:36;5.00;1.00
10566;DHT22;5331;48.148;16.326;2023-01-16T02:35:21;5.00;1.00
10566;DHT22;5331;48.148;16.326;2023-01-16T02:37:55;5.00;1.00
10566;DHT22;5331;48.148;16.326;2023-01-16T02:40:31;4.90;1.00
10566;DHT22;5331;48.148;16.326;2023-01-16T02:43:12;4.90;1.00
10566;DHT22;5331;48.148;16.326;2023-01-16T02:45:44;4.90;1.00
10566;DHT22;5331;48.148;16.326;2023-01-16T02:48:24;4.90;1.00
10566;DHT22;5331;48.148;16.326;2023-01-16T02:50:56;4.90;1.00
10566;DHT22;5331;48.148;16.326;2023-01-16T02:53:29;4.80;1.00
10566;DHT22;5331;48.148;16.326;2023-01-16T02:56:03;4.80;1.00
10566;DHT22;5331;48.148;16.326;2023-01-16T02:58:38;4.80;1.00
10566;DHT22;5331;48.148;16.326;2023-01-16T03:01:07;4.80;1.00
10566;DHT22;5331;48.148;16.326;2023-01-16T03:03:41;4.70;1.00
10566;DHT22;5331;48.148;16.326;2023-01-16T03:06:23;4.70;1.00
10566;DHT22;5331;48.148;16.326;2023-01-16T03:09:02;4.70;1.00
10566;DHT22;5331;48.148;16.326;2023-01-16T03:11:33;4.70;1.00
10566;DHT22;5331;48.148;16.326;2023-01-16T03:14:20;4.70;1.00
10566;DHT22;5331;48.148;16.326;2023-01-16T03:17:03;4.60;1.00
10566;DHT22;5331;48.148;16.326;2023-01-16T03:19:49;4.60;1.00
10566;DHT22;5331;48.148;16.326;2023-01-16T03:22:24;4.60;1.00
10566;DHT22;5331;48.148;16.326;2023-01-16T03:25:06;4.70;1.00
10566;DHT22;5331;48.148;16.326;2023-01-16T03:27:44;4.70;1.00
10566;DHT22;5331;48.148;16.326;2023-01-16T03:30:16;4.70;1.00
10566;DHT22;5331;48.148;16.326;2023-01-16T03:32:52;4.70;1.00
10566;DHT22;5331;48.148;16.326;2023-01-16T03:35:25;4.60;1.00
10566;DHT22;5331;48.148;16.326;2023-01-16T03:37:55;4.60;1.00
10566;DHT22;5331;48.148;16.326;2023-01-16T03:40:25;4.50;1.00
10566;DHT22;5331;48.148;16.326;2023-01-16T03:42:58;4.60;1.00
10566;DHT22;5331;48.148;16.326;2023-01-16T03:45:32;4.60;1.00
10566;DHT22;5331;48.148;16.326;2023-01-16T03:48:03;4.50;1.00
10566;DHT22;5331;48.148;16.326;2023-01-16T03:50:34;4.50;1.00
10566;DHT22;5331;48.148;16.326;2023-01-16T03:53:06;4.50;1.00
10566;DHT22;5331;48.148;16.326;2023-01-16T03:55:38;4.50;1.00
10566;DHT22;5331;48.148;16.326;2023-01-16T03:58:13;4.50;1.00
10566;DHT22;5331;48.148;16.326;2023-01-16T04:00:47;4.50;1.00
10566;DHT22;5331;48.148;16.326;2023-01-16T04:03:21;4.40;1.00
10566;DHT22;5331;48.148;16.326;2023-01-16T04:05:56;4.40;1.00
10566;DHT22;5331;48.148;16.326;2023-01-16T04:08:28;4.40;1.00
10566;DHT22;5331;48.148;16.326;2023-01-16T04:10:58;4.40;1.00
10566;DHT22;5331;48.148;16.326;2023-01-16T04:13:28;4.40;1.00
10566;DHT22;5331;48.148;16.326;2023-01-16T04:15:59;4.40;1.00
10566;DHT22;5331;48.148;16.326;2023-01-16T04:18:31;4.50;1.00
10566;DHT22;5331;48.148;16.326;2023-01-16T04:21:02;4.60;1.00
10566;DHT22;5331;48.148;16.326;2023-01-16T04:23:30;4.70;1.00
10566;DHT22;5331;48.148;16.326;2023-01-16T04:25:57;4.70;1.00
10566;DHT22;5331;48.148;16.326;2023-01-16T04:28:24;4.70;1.00
10566;DHT22;5331;48.148;16.326;2023-01-16T04:30:50;4.70;1.00
10566;DHT22;5331;48.148;16.326;2023-01-16T04:33:17;4.70;1.00
10566;DHT22;5331;48.148;16.326;2023-01-16T04:35:44;4.70;1.00
10566;DHT22;5331;48.148;16.326;2023-01-16T04:38:13;4.70;1.00
10566;DHT22;5331;48.148;16.326;2023-01-16T04:40:42;4.70;1.00
10566;DHT22;5331;48.148;16.326;2023-01-16T04:43:09;4.80;1.00
10566;DHT22;5331;48.148;16.326;2023-01-16T04:45:36;4.80;1.00
10566;DHT22;5331;48.148;16.326;2023-01-16T04:48:05;4.80;1.00
10566;DHT22;5331;48.148;16.326;2023-01-16T04:50:32;4.90;1.00
10566;DHT22;5331;48.148;16.326;2023-01-16T04:52:59;4.80;1.00
10566;DHT22;5331;48.148;16.326;2023-01-16T04:55:27;4.90;1.00
10566;DHT22;5331;48.148;16.326;2023-01-16T04:57:54;4.90;1.00
10566;DHT22;5331;48.148;16.326;2023-01-16T05:00:21;4.90;1.00
10566;DHT22;5331;48.148;16.326;2023-01-16T05:02:48;4.90;1.00
10566;DHT22;5331;48.148;16.326;2023-01-16T05:05:15;4.80;1.00
10566;DHT22;5331;48.148;16.326;2023-01-16T05:07:42;4.70;1.00
10566;DHT22;5331;48.148;16.326;2023-01-16T05:10:10;4.80;1.00
10566;DHT22;5331;48.148;16.326;2023-01-16T05:12:38;4.70;1.00
10566;DHT22;5331;48.148;16.326;2023-01-16T05:15:06;4.80;1.00
10566;DHT22;5331;48.148;16.326;2023-01-16T05:17:33;4.80;1.00
10566;DHT22;5331;48.148;16.326;2023-01-16T05:20:00;4.80;1.00
10566;DHT22;5331;48.148;16.326;2023-01-16T05:22:27;4.90;1.00
10566;DHT22;5331;48.148;16.326;2023-01-16T05:24:54;4.90;1.00
10566;DHT22;5331;48.148;16.326;2023-01-16T05:27:21;5.00;1.00
10566;DHT22;5331;48.148;16.326;2023-01-16T05:29:49;5.00;1.00
10566;DHT22;5331;48.148;16.326;2023-01-16T05:32:16;5.00;1.00
10566;DHT22;5331;48.148;16.326;2023-01-16T05:34:43;5.00;1.00
10566;DHT22;5331;48.148;16.326;2023-01-16T05:37:10;5.10;1.00
10566;DHT22;5331;48.148;16.326;2023-01-16T05:39:37;5.10;1.00
10566;DHT22;5331;48.148;16.326;2023-01-16T05:42:04;5.10;1.00
10566;DHT22;5331;48.148;16.326;2023-01-16T05:44:46;5.10;1.00
10566;DHT22;5331;48.148;16.326;2023-01-16T05:47:15;5.20;1.00
10566;DHT22;5331;48.148;16.326;2023-01-16T05:49:41;5.10;1.00
10566;DHT22;5331;48.148;16.326;2023-01-16T05:52:08;5.10;1.00
10566;DHT22;5331;48.148;16.326;2023-01-16T05:54:35;5.10;1.00
10566;DHT22;5331;48.148;16.326;2023-01-16T05:57:03;5.00;1.00
10566;DHT22;5331;48.148;16.326;2023-01-16T05:59:30;5.10;1.00
10566;DHT22;5331;48.148;16.326;2023-01-16T06:01:57;5.10;1.00
10566;DHT22;5331;48.148;16.326;2023-01-16T06:04:25;5.10;1.00
10566;DHT22;5331;48.148;16.326;2023-01-16T06:06:53;5.10;1.00
10566;DHT22;5331;48.148;16.326;2023-01-16T06:09:20;5.00;1.00
10566;DHT22;5331;48.148;16.326;2023-01-16T06:11:47;4.90;1.00
10566;DHT22;5331;48.148;16.326;2023-01-16T06:14:15;4.90;1.00
10566;DHT22;5331;48.148;16.326;2023-01-16T06:16:42;4.90;1.00
10566;DHT22;5331;48.148;16.326;2023-01-16T06:19:09;4.90;1.00
10566;DHT22;5331;48.148;16.326;2023-01-16T06:21:37;4.90;1.00
10566;DHT22;5331;48.148;16.326;2023-01-16T06:24:05;4.80;1.00
10566;DHT22;5331;48.148;16.326;2023-01-16T06:26:32;4.80;1.00
10566;DHT22;5331;48.148;16.326;2023-01-16T06:28:59;4.90;1.00
10566;DHT22;5331;48.148;16.326;2023-01-16T06:31:26;4.80;1.00
10566;DHT22;5331;48.148;16.326;2023-01-16T06:33:54;4.90;1.00
10566;DHT22;5331;48.148;16.326;2023-01-16T06:36:21;4.80;1.00
10566;DHT22;5331;48.148;16.326;2023-01-16T06:38:49;4.90;1.00
10566;DHT22;5331;48.148;16.326;2023-01-16T06:41:16;4.80;1.00
10566;DHT22;5331;48.148;16.326;2023-01-16T06:43:43;4.70;1.00
10566;DHT22;5331;48.148;16.326;2023-01-16T06:46:10;4.70;1.00
10566;DHT22;5331;48.148;16.326;2023-01-16T06:48:37;4.70;1.00
10566;DHT22;5331;48.148;16.326;2023-01-16T06:51:04;4.60;1.00
10566;DHT22;5331;48.148;16.326;2023-01-16T06:53:31;4.70;1.00
10566;DHT22;5331;48.148;16.326;2023-01-16T06:55:59;4.70;1.00
10566;DHT22;5331;48.148;16.326;2023-01-16T06:58:26;4.70;1.00
10566;DHT22;5331;48.148;16.326;2023-01-16T07:00:53;4.60;1.00
10566;DHT22;5331;48.148;16.326;2023-01-16T07:03:21;4.60;1.00
10566;DHT22;5331;48.148;16.326;2023-01-16T07:05:48;4.50;1.00
10566;DHT22;5331;48.148;16.326;2023-01-16T07:08:16;4.50;1.00
10566;DHT22;5331;48.148;16.326;2023-01-16T07:10:43;4.50;1.00
10566;DHT22;5331;48.148;16.326;2023-01-16T07:13:11;4.50;1.00
10566;DHT22;5331;48.148;16.326;2023-01-16T07:15:38;4.50;1.00
10566;DHT22;5331;48.148;16.326;2023-01-16T07:18:23;4.50;1.00
10566;DHT22;5331;48.148;16.326;2023-01-16T07:21:10;4.50;1.00
10566;DHT22;5331;48.148;16.326;2023-01-16T07:23:59;4.40;1.00
10566;DHT22;5331;48.148;16.326;2023-01-16T07:26:27;4.40;1.00
10566;DHT22;5331;48.148;16.326;2023-01-16T07:28:56;4.40;1.00
10566;DHT22;5331;48.148;16.326;2023-01-16T07:31:24;4.40;1.00
10566;DHT22;5331;48.148;16.326;2023-01-16T07:33:52;4.40;1.00
10566;DHT22;5331;48.148;16.326;2023-01-16T07:36:19;4.40;1.00
10566;DHT22;5331;48.148;16.326;2023-01-16T07:38:46;4.40;1.00
10566;DHT22;5331;48.148;16.326;2023-01-16T07:41:13;4.40;1.00
10566;DHT22;5331;48.148;16.326;2023-01-16T07:43:40;4.50;1.00
10566;DHT22;5331;48.148;16.326;2023-01-16T07:46:09;4.50;1.00
10566;DHT22;5331;48.148;16.326;2023-01-16T07:48:36;4.50;1.00
10566;DHT22;5331;48.148;16.326;2023-01-16T07:51:03;4.50;1.00
10566;DHT22;5331;48.148;16.326;2023-01-16T07:53:31;4.60;1.00
10566;DHT22;5331;48.148;16.326;2023-01-16T07:56:00;4.50;1.00
10566;DHT22;5331;48.148;16.326;2023-01-16T07:58:29;4.50;1.00
10566;DHT22;5331;48.148;16.326;2023-01-16T08:00:57;4.50;1.00
10566;DHT22;5331;48.148;16.326;2023-01-16T08:03:25;4.50;1.00
10566;DHT22;5331;48.148;16.326;2023-01-16T08:05:57;4.50;1.00
10566;DHT22;5331;48.148;16.326;2023-01-16T08:08:26;4.50;1.00
10566;DHT22;5331;48.148;16.326;2023-01-16T08:10:54;4.50;1.00
10566;DHT22;5331;48.148;16.326;2023-01-16T08:13:21;4.50;1.00
10566;DHT22;5331;48.148;16.326;2023-01-16T08:15:48;4.40;1.00
10566;DHT22;5331;48.148;16.326;2023-01-16T08:18:16;4.40;1.00
10566;DHT22;5331;48.148;16.326;2023-01-16T08:20:45;4.40;1.00
10566;DHT22;5331;48.148;16.326;2023-01-16T08:23:12;4.40;1.00
10566;DHT22;5331;48.148;16.326;2023-01-16T08:25:39;4.30;1.00
10566;DHT22;5331;48.148;16.326;2023-01-16T08:28:06;4.30;1.00
10566;DHT22;5331;48.148;16.326;2023-01-16T08:30:35;4.30;1.00
10566;DHT22;5331;48.148;16.326;2023-01-16T08:33:02;4.40;1.00
10566;DHT22;5331;48.148;16.326;2023-01-16T08:35:29;4.40;1.00
10566;DHT22;5331;48.148;16.326;2023-01-16T08:37:57;4.50;1.00
10566;DHT22;5331;48.148;16.326;2023-01-16T08:40:24;4.60;1.00
10566;DHT22;5331;48.148;16.326;2023-01-16T08:42:52;4.60;1.00
10566;DHT22;5331;48.148;16.326;2023-01-16T08:45:36;4.60;1.00
10566;DHT22;5331;48.148;16.326;2023-01-16T08:48:24;4.60;1.00
10566;DHT22;5331;48.148;16.326;2023-01-16T08:51:15;4.70;1.00
10566;DHT22;5331;48.148;16.326;2023-01-16T08:53:50;4.70;1.00
10566;DHT22;5331;48.148;16.326;2023-01-16T08:56:18;4.80;1.00
10566;DHT22;5331;48.148;16.326;2023-01-16T08:58:45;4.90;1.00
10566;DHT22;5331;48.148;16.326;2023-01-16T09:01:12;4.90;1.00
10566;DHT22;5331;48.148;16.326;2023-01-16T09:03:39;4.90;1.00
10566;DHT22;5331;48.148;16.326;2023-01-16T09:06:06;4.90;1.00
10566;DHT22;5331;48.148;16.326;2023-01-16T09:08:33;4.90;1.00
10566;DHT22;5331;48.148;16.326;2023-01-16T09:11:01;5.00;1.00
10566;DHT22;5331;48.148;16.326;2023-01-16T09:13:46;5.00;1.00
10566;DHT22;5331;48.148;16.326;2023-01-16T09:16:16;5.10;1.00
10566;DHT22;5331;48.148;16.326;2023-01-16T09:18:43;5.10;1.00
10566;DHT22;5331;48.148;16.326;2023-01-16T09:21:10;5.10;1.00
10566;DHT22;5331;48.148;16.326;2023-01-16T09:23:37;5.00;1.00
10566;DHT22;5331;48.148;16.326;2023-01-16T09:26:06;5.00;1.00
10566;DHT22;5331;48.148;16.326;2023-01-16T09:28:33;5.00;1.00
10566;DHT22;5331;48.148;16.326;2023-01-16T09:31:00;5.00;1.00
10566;DHT22;5331;48.148;16.326;2023-01-16T09:33:27;4.90;1.00
10566;DHT22;5331;48.148;16.326;2023-01-16T09:35:54;4.90;1.00
10566;DHT22;5331;48.148;16.326;2023-01-16T09:38:21;5.00;1.00
10566;DHT22;5331;48.148;16.326;2023-01-16T09:40:51;4.90;1.00
10566;DHT22;5331;48.148;16.326;2023-01-16T09:43:31;5.00;1.00
10566;DHT22;5331;48.148;16.326;2023-01-16T09:46:09;5.00;1.00
10566;DHT22;5331;48.148;16.326;2023-01-16T09:48:41;5.00;1.00
10566;DHT22;5331;48.148;16.326;2023-01-16T09:51:14;5.00;1.00
10566;DHT22;5331;48.148;16.326;2023-01-16T09:53:45;5.00;1.00
10566;DHT22;5331;48.148;16.326;2023-01-16T09:56:37;5.10;1.00
10566;DHT22;5331;48.148;16.326;2023-01-16T09:59:29;5.10;1.00
10566;DHT22;5331;48.148;16.326;2023-01-16T10:02:05;5.20;1.00
10566;DHT22;5331;48.148;16.326;2023-01-16T10:04:35;5.20;1.00
10566;DHT22;5331;48.148;16.326;2023-01-16T10:07:23;5.20;1.00
10566;DHT22;5331;48.148;16.326;2023-01-16T10:09:58;5.20;1.00
10566;DHT22;5331;48.148;16.326;2023-01-16T10:12:32;5.20;1.00
10566;DHT22;5331;48.148;16.326;2023-01-16T10:15:14;5.30;1.00
10566;DHT22;5331;48.148;16.326;2023-01-16T10:17:49;5.40;1.00
10566;DHT22;5331;48.148;16.326;2023-01-16T10:20:39;5.50;1.00
10566;DHT22;5331;48.148;16.326;2023-01-16T10:23:22;5.60;1.00
10566;DHT22;5331;48.148;16.326;2023-01-16T10:26:00;5.60;1.00
10566;DHT22;5331;48.148;16.326;2023-01-16T10:28:40;5.60;1.00
10566;DHT22;5331;48.148;16.326;2023-01-16T10:31:17;5.70;1.00
10566;DHT22;5331;48.148;16.326;2023-01-16T10:33:52;5.60;1.00
10566;DHT22;5331;48.148;16.326;2023-01-16T10:36:24;5.70;1.00
10566;DHT22;5331;48.148;16.326;2023-01-16T10:38:54;5.70;1.00
10566;DHT22;5331;48.148;16.326;2023-01-16T10:41:25;5.70;1.00
10566;DHT22;5331;48.148;16.326;2023-01-16T10:47:25;5.60;1.00
10566;DHT22;5331;48.148;16.326;2023-01-16T10:50:11;5.70;1.00
10566;DHT22;5331;48.148;16.326;2023-01-16T10:52:38;5.70;1.00
10566;DHT22;5331;48.148;16.326;2023-01-16T10:55:06;5.60;1.00
10566;DHT22;5331;48.148;16.326;2023-01-16T10:57:35;5.50;1.00
10566;DHT22;5331;48.148;16.326;2023-01-16T11:00:05;5.50;1.00
10566;DHT22;5331;48.148;16.326;2023-01-16T11:02:38;5.40;1.00
10566;DHT22;5331;48.148;16.326;2023-01-16T11:05:21;5.50;1.00
10566;DHT22;5331;48.148;16.326;2023-01-16T11:07:48;5.60;1.00
10566;DHT22;5331;48.148;16.326;2023-01-16T11:10:19;5.60;1.00
10566;DHT22;5331;48.148;16.326;2023-01-16T11:12:46;5.60;1.00
10566;DHT22;5331;48.148;16.326;2023-01-16T11:15:30;5.60;1.00
10566;DHT22;5331;48.148;16.326;2023-01-16T11:18:27;5.60;1.00
10566;DHT22;5331;48.148;16.326;2023-01-16T11:20:55;5.70;1.00
10566;DHT22;5331;48.148;16.326;2023-01-16T11:23:24;5.70;1.00
10566;DHT22;5331;48.148;16.326;2023-01-16T11:25:54;5.80;1.00
10566;DHT22;5331;48.148;16.326;2023-01-16T11:28:24;5.70;1.00
10566;DHT22;5331;48.148;16.326;2023-01-16T11:30:55;5.70;1.00
10566;DHT22;5331;48.148;16.326;2023-01-16T11:33:28;5.60;1.00
10566;DHT22;5331;48.148;16.326;2023-01-16T11:36:01;5.50;1.00
10566;DHT22;5331;48.148;16.326;2023-01-16T11:38:31;5.40;1.00
10566;DHT22;5331;48.148;16.326;2023-01-16T11:41:01;5.40;1.00
10566;DHT22;5331;48.148;16.326;2023-01-16T11:43:29;5.40;1.00
10566;DHT22;5331;48.148;16.326;2023-01-16T11:46:30;5.40;1.00
10566;DHT22;5331;48.148;16.326;2023-01-16T11:49:02;5.40;1.00
10566;DHT22;5331;48.148;16.326;2023-01-16T11:51:31;5.40;1.00
10566;DHT22;5331;48.148;16.326;2023-01-16T11:53:59;5.30;1.00
10566;DHT22;5331;48.148;16.326;2023-01-16T11:56:44;5.30;1.00
10566;DHT22;5331;48.148;16.326;2023-01-16T11:59:31;5.30;1.00
10566;DHT22;5331;48.148;16.326;2023-01-16T12:02:11;5.20;1.00
10566;DHT22;5331;48.148;16.326;2023-01-16T12:04:51;5.20;1.00
10566;DHT22;5331;48.148;16.326;2023-01-16T12:07:43;5.10;1.00
10566;DHT22;5331;48.148;16.326;2023-01-16T12:10:27;5.20;1.00
10566;DHT22;5331;48.148;16.326;2023-01-16T12:13:03;5.20;1.00
10566;DHT22;5331;48.148;16.326;2023-01-16T12:16:07;5.30;1.00
10566;DHT22;5331;48.148;16.326;2023-01-16T12:18:44;5.40;1.00
10566;DHT22;5331;48.148;16.326;2023-01-16T12:21:26;5.40;1.00
10566;DHT22;5331;48.148;16.326;2023-01-16T12:24:12;5.40;1.00
10566;DHT22;5331;48.148;16.326;2023-01-16T12:26:47;5.20;1.00
10566;DHT22;5331;48.148;16.326;2023-01-16T12:29:25;5.20;1.00
10566;DHT22;5331;48.148;16.326;2023-01-16T12:32:08;5.20;1.00
10566;DHT22;5331;48.148;16.326;2023-01-16T12:34:50;5.20;1.00
10566;DHT22;5331;48.148;16.326;2023-01-16T12:37:35;5.10;1.00
10566;DHT22;5331;48.148;16.326;2023-01-16T12:40:18;5.10;1.00
10566;DHT22;5331;48.148;16.326;2023-01-16T12:42:58;5.00;1.00
10566;DHT22;5331;48.148;16.326;2023-01-16T12:45:48;5.10;1.00
10566;DHT22;5331;48.148;16.326;2023-01-16T12:48:34;5.10;1.00
10566;DHT22;5331;48.148;16.326;2023-01-16T12:51:19;5.10;1.00
10566;DHT22;5331;48.148;16.326;2023-01-16T12:54:12;5.10;1.00
10566;DHT22;5331;48.148;16.326;2023-01-16T12:56:49;5.20;1.00
10566;DHT22;5331;48.148;16.326;2023-01-16T12:59:22;5.20;1.00
10566;DHT22;5331;48.148;16.326;2023-01-16T13:01:54;5.20;1.00
10566;DHT22;5331;48.148;16.326;2023-01-16T13:04:24;5.20;1.00
10566;DHT22;5331;48.148;16.326;2023-01-16T13:06:56;5.30;1.00
10566;DHT22;5331;48.148;16.326;2023-01-16T13:09:30;5.20;1.00
10566;DHT22;5331;48.148;16.326;2023-01-16T13:12:05;5.10;1.00
10566;DHT22;5331;48.148;16.326;2023-01-16T13:14:58;5.00;1.00
10566;DHT22;5331;48.148;16.326;2023-01-16T13:17:34;5.00;1.00
10566;DHT22;5331;48.148;16.326;2023-01-16T13:20:04;4.80;1.00
10566;DHT22;5331;48.148;16.326;2023-01-16T13:22:37;4.80;1.00
10566;DHT22;5331;48.148;16.326;2023-01-16T13:25:15;4.80;1.00
10566;DHT22;5331;48.148;16.326;2023-01-16T13:27:47;4.80;1.00
10566;DHT22;5331;48.148;16.326;2023-01-16T13:30:17;4.80;1.00
10566;DHT22;5331;48.148;16.326;2023-01-16T13:32:48;4.70;1.00
10566;DHT22;5331;48.148;16.326;2023-01-16T13:35:19;4.70;1.00
10566;DHT22;5331;48.148;16.326;2023-01-16T13:38:16;4.70;1.00
10566;DHT22;5331;48.148;16.326;2023-01-16T13:41:06;4.60;1.00
10566;DHT22;5331;48.148;16.326;2023-01-16T13:43:39;4.60;1.00
10566;DHT22;5331;48.148;16.326;2023-01-16T13:46:26;4.60;1.00
10566;DHT22;5331;48.148;16.326;2023-01-16T13:48:56;4.50;1.00
10566;DHT22;5331;48.148;16.326;2023-01-16T13:51:23;4.40;1.00
10566;DHT22;5331;48.148;16.326;2023-01-16T13:53:52;4.40;1.00
10566;DHT22;5331;48.148;16.326;2023-01-16T13:56:23;4.40;1.00
10566;DHT22;5331;48.148;16.326;2023-01-16T13:58:55;4.30;1.00
10566;DHT22;5331;48.148;16.326;2023-01-16T14:01:33;4.30;1.00
10566;DHT22;5331;48.148;16.326;2023-01-16T14:04:24;4.30;1.00
10566;DHT22;5331;48.148;16.326;2023-01-16T14:06:53;4.20;1.00
10566;DHT22;5331;48.148;16.326;2023-01-16T14:10:07;4.20;1.00
10566;DHT22;5331;48.148;16.326;2023-01-16T14:12:43;4.20;1.00
10566;DHT22;5331;48.148;16.326;2023-01-16T14:15:20;4.10;1.00
10566;DHT22;5331;48.148;16.326;2023-01-16T14:18:17;4.00;1.00
10566;DHT22;5331;48.148;16.326;2023-01-16T14:20:50;4.00;1.00
10566;DHT22;5331;48.148;16.326;2023-01-16T14:23:21;4.00;1.00
10566;DHT22;5331;48.148;16.326;2023-01-16T14:26:07;4.00;1.00
10566;DHT22;5331;48.148;16.326;2023-01-16T14:28:38;3.90;1.00
10566;DHT22;5331;48.148;16.326;2023-01-16T14:31:20;3.90;1.00
10566;DHT22;5331;48.148;16.326;2023-01-16T14:33:48;3.90;1.00
10566;DHT22;5331;48.148;16.326;2023-01-16T14:36:18;3.90;1.00
10566;DHT22;5331;48.148;16.326;2023-01-16T14:38:46;3.80;1.00
10566;DHT22;5331;48.148;16.326;2023-01-16T14:41:17;3.80;1.00
10566;DHT22;5331;48.148;16.326;2023-01-16T14:44:14;3.80;1.00
10566;DHT22;5331;48.148;16.326;2023-01-16T14:47:11;3.80;1.00
10566;DHT22;5331;48.148;16.326;2023-01-16T14:50:10;3.70;1.00
10566;DHT22;5331;48.148;16.326;2023-01-16T14:53:17;3.70;1.00
10566;DHT22;5331;48.148;16.326;2023-01-16T14:56:05;3.60;1.00
10566;DHT22;5331;48.148;16.326;2023-01-16T14:58:38;3.60;1.00
10566;DHT22;5331;48.148;16.326;2023-01-16T15:01:18;3.70;1.00
10566;DHT22;5331;48.148;16.326;2023-01-16T15:04:05;3.70;1.00
10566;DHT22;5331;48.148;16.326;2023-01-16T15:06:36;3.60;1.00
10566;DHT22;5331;48.148;16.326;2023-01-16T15:09:04;3.70;1.00
10566;DHT22;5331;48.148;16.326;2023-01-16T15:11:41;3.70;1.00
10566;DHT22;5331;48.148;16.326;2023-01-16T15:14:13;3.60;1.00
10566;DHT22;5331;48.148;16.326;2023-01-16T15:17:15;3.60;1.00
10566;DHT22;5331;48.148;16.326;2023-01-16T15:20:16;3.60;1.00
10566;DHT22;5331;48.148;16.326;2023-01-16T15:23:04;3.50;1.00
10566;DHT22;5331;48.148;16.326;2023-01-16T15:25:43;3.50;1.00
10566;DHT22;5331;48.148;16.326;2023-01-16T15:28:20;3.50;1.00
10566;DHT22;5331;48.148;16.326;2023-01-16T15:30:50;3.50;1.00
10566;DHT22;5331;48.148;16.326;2023-01-16T15:33:27;3.50;1.00
10566;DHT22;5331;48.148;16.326;2023-01-16T15:36:19;3.50;1.00
10566;DHT22;5331;48.148;16.326;2023-01-16T15:38:47;3.50;1.00
10566;DHT22;5331;48.148;16.326;2023-01-16T15:41:18;3.40;1.00
10566;DHT22;5331;48.148;16.326;2023-01-16T15:44:13;3.40;1.00
10566;DHT22;5331;48.148;16.326;2023-01-16T15:50:02;3.30;1.00
10566;DHT22;5331;48.148;16.326;2023-01-16T15:52:34;3.40;1.00
10566;DHT22;5331;48.148;16.326;2023-01-16T15:55:10;3.40;1.00
10566;DHT22;5331;48.148;16.326;2023-01-16T15:57:37;3.30;1.00
10566;DHT22;5331;48.148;16.326;2023-01-16T16:00:23;3.30;1.00
10566;DHT22;5331;48.148;16.326;2023-01-16T16:02:50;3.30;1.00
10566;DHT22;5331;48.148;16.326;2023-01-16T16:05:26;3.30;1.00
10566;DHT22;5331;48.148;16.326;2023-01-16T16:07:54;3.30;1.00
10566;DHT22;5331;48.148;16.326;2023-01-16T16:10:21;3.30;1.00
10566;DHT22;5331;48.148;16.326;2023-01-16T16:13:19;3.30;1.00
10566;DHT22;5331;48.148;16.326;2023-01-16T16:15:57;3.30;1.00
10566;DHT22;5331;48.148;16.326;2023-01-16T16:18:52;3.30;1.00
10566;DHT22;5331;48.148;16.326;2023-01-16T16:21:21;3.30;1.00
10566;DHT22;5331;48.148;16.326;2023-01-16T16:23:58;3.30;1.00
10566;DHT22;5331;48.148;16.326;2023-01-16T16:26:27;3.20;1.00
10566;DHT22;5331;48.148;16.326;2023-01-16T16:28:55;3.20;1.00
10566;DHT22;5331;48.148;16.326;2023-01-16T16:31:26;3.20;1.00
10566;DHT22;5331;48.148;16.326;2023-01-16T16:33:57;3.20;1.00
10566;DHT22;5331;48.148;16.326;2023-01-16T16:36:27;3.20;1.00
10566;DHT22;5331;48.148;16.326;2023-01-16T16:38:55;3.10;1.00
10566;DHT22;5331;48.148;16.326;2023-01-16T16:41:42;3.10;1.00
10566;DHT22;5331;48.148;16.326;2023-01-16T16:44:37;3.10;1.00
10566;DHT22;5331;48.148;16.326;2023-01-16T16:47:25;3.20;1.00
10566;DHT22;5331;48.148;16.326;2023-01-16T16:49:53;3.20;1.00
10566;DHT22;5331;48.148;16.326;2023-01-16T16:52:31;3.30;1.00